Current | Forecast
Updated: 8:56 AM JST on October 17, 2017
Observed at Yokota AB, Japan
Temperature 55°F
Humidity 95%
Dew Point 53°F
Wind North at 7 mph
Pressure 30.31 in (Steady)
Conditions Light Rain
Visibility 3.0 miles
UV 1 out of 16
Clouds Scattered Clouds (SCT) : 700 ft
Overcast (OVC) : 2200 ft
Yesterday's Maximum 56°F
Yesterday's Minimum 52°F approx.
Yesterday's Heating Degree Days 11 approx.
Sunrise5:50 AM JST
Sunset5:04 PM JST
Moon Rise2:55 AM JST
Moon Set3:54 PM JST
Moon PhaseMoon Phase
Waning Crescent
Raw METARMETAR RJTY 162356Z 36006KT 3SM -RA BR SCT007 OVC022 13/12 A3029 RMK AO2A SLP262 P0002 60014 70076 T01260118 10126 20113 50005 FZRANO $


Monday
. High: 75° F.
Tuesday
. High: 75° F.
Wednesday
. High: 66° F.
Thursday
. High: 71° F.
Friday
. High: 73° F.
Saturday
. High: 73° F.
Sunday
. High: 73° F.
Monday
. High: 71° F.

Units: English | Metric

Find the Weather for any City, State or Zipcode, or Country:

U.S. State List | Severe Weather | Tropical Storms | Ski Conditions
United States | Canada | Central America | South America | Asia | Europe | Australia | Africa | Islands

Weather Underground

© Copyright 2017
The Weather Company, LLC